createdAt,value
2018-03-16T00:00:07.659Z,61.00
2018-03-16T00:02:35.151Z,61.40
2018-03-16T00:05:02.681Z,61.60
2018-03-16T00:07:30.964Z,61.00
2018-03-16T00:09:59.268Z,61.10
2018-03-16T00:12:27.525Z,61.30
2018-03-16T00:14:55.878Z,61.10
2018-03-16T00:17:23.473Z,61.10
2018-03-16T00:19:51.019Z,61.50
2018-03-16T00:22:30.390Z,61.50
2018-03-16T00:24:57.906Z,61.30
2018-03-16T00:27:25.401Z,61.70
2018-03-16T00:29:52.892Z,61.20
2018-03-16T00:32:20.425Z,61.30
2018-03-16T00:34:48.026Z,61.70
2018-03-16T00:37:15.505Z,62.20
2018-03-16T00:39:43.066Z,61.70
2018-03-16T00:42:10.562Z,61.90
2018-03-16T00:44:38.121Z,62.30
2018-03-16T00:47:05.728Z,63.70
2018-03-16T00:49:33.980Z,60.20
2018-03-16T00:52:01.484Z,60.20
2018-03-16T00:54:29.733Z,60.10
2018-03-16T00:56:57.248Z,59.90
2018-03-16T00:59:25.506Z,60.90
2018-03-16T01:01:53.012Z,60.90
2018-03-16T01:04:21.394Z,60.40
2018-03-16T01:06:49.724Z,60.80
2018-03-16T01:09:17.211Z,60.70
2018-03-16T01:11:44.729Z,60.50
2018-03-16T01:14:13.113Z,60.50
2018-03-16T01:16:41.401Z,60.00
2018-03-16T01:19:08.933Z,60.00
2018-03-16T01:21:36.671Z,60.80
2018-03-16T01:24:04.201Z,62.50
2018-03-16T01:26:31.678Z,60.60
2018-03-16T01:28:59.955Z,59.90
2018-03-16T01:31:27.550Z,60.00
2018-03-16T01:33:55.842Z,60.40
2018-03-16T01:36:24.153Z,60.60
2018-03-16T01:38:52.437Z,60.10
2018-03-16T01:41:20.008Z,60.10
2018-03-16T01:43:47.487Z,59.60
2018-03-16T01:46:15.008Z,60.10
2018-03-16T01:48:43.284Z,59.80
2018-03-16T01:51:10.791Z,59.90
2018-03-16T01:53:39.342Z,59.50
2018-03-16T01:56:06.844Z,59.40
2018-03-16T01:58:35.138Z,59.80
2018-03-16T02:01:03.429Z,59.00
2018-03-16T02:03:31.697Z,58.60
2018-03-16T02:05:59.277Z,58.50
2018-03-16T02:08:26.809Z,58.50
2018-03-16T02:10:54.321Z,58.00
2018-03-16T02:13:21.808Z,58.50
2018-03-16T02:15:50.093Z,58.70
2018-03-16T02:18:18.356Z,58.00
2018-03-16T02:20:45.935Z,58.00
2018-03-16T02:23:13.507Z,58.40
2018-03-16T02:25:42.549Z,57.90
2018-03-16T02:28:10.200Z,57.90
2018-03-16T02:30:39.091Z,58.00
2018-03-16T02:33:06.572Z,57.80
2018-03-16T02:35:34.155Z,58.70
2018-03-16T02:38:01.708Z,58.50
2018-03-16T02:40:29.985Z,57.70
2018-03-16T02:42:57.465Z,57.70
2018-03-16T02:45:25.045Z,57.80
2018-03-16T02:47:53.314Z,57.90
2018-03-16T02:50:20.830Z,57.90
2018-03-16T02:52:48.366Z,57.20
2018-03-16T02:55:15.854Z,56.80
2018-03-16T02:57:44.211Z,58.10
2018-03-16T03:00:11.689Z,58.10
2018-03-16T03:02:39.511Z,56.70
2018-03-16T03:05:06.998Z,57.50
2018-03-16T03:07:34.481Z,57.20
2018-03-16T03:10:02.112Z,56.80
2018-03-16T03:12:30.400Z,56.70
2018-03-16T03:14:58.693Z,57.50
2018-03-16T03:17:26.210Z,57.50
2018-03-16T03:19:53.741Z,58.30
2018-03-16T03:22:21.271Z,56.60
2018-03-16T03:24:49.803Z,57.10
2018-03-16T03:27:17.312Z,56.60
2018-03-16T03:29:44.849Z,56.50
2018-03-16T03:32:12.378Z,56.50
2018-03-16T03:34:39.885Z,57.10
2018-03-16T03:37:07.416Z,56.80
2018-03-16T03:39:34.901Z,56.50
2018-03-16T03:42:03.145Z,57.30
2018-03-16T03:44:30.650Z,57.20
2018-03-16T03:46:58.232Z,57.10
2018-03-16T03:49:26.542Z,56.90
2018-03-16T03:51:54.036Z,56.90
2018-03-16T03:54:21.513Z,57.00
2018-03-16T03:56:49.029Z,56.80
2018-03-16T03:59:17.269Z,56.60
2018-03-16T04:01:44.852Z,56.60
2018-03-16T04:04:12.345Z,56.80
2018-03-16T04:06:40.658Z,56.70
2018-03-16T04:09:08.898Z,57.30
2018-03-16T04:11:36.428Z,57.30
2018-03-16T04:14:03.922Z,57.00
2018-03-16T04:16:31.434Z,56.20
2018-03-16T04:18:58.926Z,57.70
2018-03-16T04:21:26.462Z,56.30
2018-03-16T04:23:53.955Z,57.00
2018-03-16T04:26:22.203Z,56.80
2018-03-16T04:28:49.705Z,56.60
2018-03-16T04:31:17.273Z,58.10
2018-03-16T04:33:44.878Z,57.20
2018-03-16T04:36:12.365Z,56.80
2018-03-16T04:38:39.891Z,56.10
2018-03-16T04:41:08.160Z,58.60
2018-03-16T04:43:35.688Z,58.50
2018-03-16T04:46:03.318Z,57.40
2018-03-16T04:48:30.848Z,55.70
2018-03-16T04:50:58.443Z,55.90
2018-03-16T04:53:25.969Z,56.20
2018-03-16T04:55:53.479Z,56.10
2018-03-16T04:58:20.971Z,56.00
2018-03-16T05:00:48.478Z,56.20
2018-03-16T05:03:15.964Z,55.90
2018-03-16T05:05:43.476Z,56.10
2018-03-16T05:08:11.045Z,56.10
2018-03-16T05:10:39.316Z,56.60
2018-03-16T05:13:07.451Z,56.70
2018-03-16T05:15:35.756Z,58.40
2018-03-16T05:18:03.249Z,58.40
2018-03-16T05:20:30.737Z,56.90
2018-03-16T05:22:58.384Z,55.70
2018-03-16T05:25:25.915Z,56.90
2018-03-16T05:27:54.190Z,56.30
2018-03-16T05:30:21.791Z,56.30
2018-03-16T05:32:49.348Z,56.80
2018-03-16T05:35:17.755Z,57.20
2018-03-16T05:37:45.300Z,57.10
2018-03-16T05:40:13.615Z,56.10
2018-03-16T05:42:41.174Z,56.00
2018-03-16T05:45:09.443Z,56.20
2018-03-16T05:47:37.737Z,57.70
2018-03-16T05:50:05.987Z,56.10
2018-03-16T05:52:33.625Z,55.90
2018-03-16T05:55:01.165Z,55.70
2018-03-16T05:57:28.779Z,55.10
2018-03-16T05:59:56.262Z,55.30
2018-03-16T06:02:23.779Z,55.00
2018-03-16T06:04:51.274Z,56.00
2018-03-16T06:07:18.910Z,55.60
2018-03-16T06:09:46.528Z,55.80
2018-03-16T06:12:14.091Z,55.10
2018-03-16T06:14:41.643Z,56.40
2018-03-16T06:17:09.910Z,57.70
2018-03-16T06:19:37.417Z,57.70
2018-03-16T06:22:04.934Z,55.60
2018-03-16T06:24:32.551Z,55.20
2018-03-16T06:27:00.864Z,56.40
2018-03-16T06:29:28.374Z,56.40
2018-03-16T06:31:55.866Z,56.70
2018-03-16T06:34:23.385Z,56.50
2018-03-16T06:36:50.911Z,56.00
2018-03-16T06:39:19.324Z,53.60
2018-03-16T06:41:46.851Z,53.50
2018-03-16T06:44:15.103Z,57.00
2018-03-16T06:46:42.587Z,57.00
2018-03-16T06:49:10.219Z,55.00
2018-03-16T06:51:38.700Z,54.20
2018-03-16T06:54:07.080Z,54.60
2018-03-16T06:56:35.328Z,57.60
2018-03-16T06:59:02.961Z,57.60
2018-03-16T07:01:31.246Z,54.10
2018-03-16T07:03:58.822Z,54.10
2018-03-16T07:06:27.064Z,55.80
2018-03-16T07:08:54.661Z,55.20
2018-03-16T07:11:22.956Z,54.60
2018-03-16T07:13:51.226Z,53.50
2018-03-16T07:16:18.788Z,53.50
2018-03-16T07:18:46.371Z,55.00
2018-03-16T07:21:13.868Z,56.40
2018-03-16T07:23:42.160Z,54.10
2018-03-16T07:26:10.482Z,53.60
2018-03-16T07:28:37.976Z,53.50
2018-03-16T07:31:06.546Z,54.00
2018-03-16T07:33:34.065Z,53.90
2018-03-16T07:36:01.562Z,55.30
2018-03-16T07:38:29.081Z,54.50
2018-03-16T07:40:56.606Z,53.80
2018-03-16T07:43:24.093Z,53.00
2018-03-16T07:45:57.276Z,53.60
2018-03-16T07:48:24.763Z,52.50
2018-03-16T07:50:52.269Z,53.60
2018-03-16T07:53:19.998Z,53.30
2018-03-16T07:55:47.564Z,54.10
2018-03-16T07:58:16.518Z,53.20
2018-03-16T08:00:44.029Z,53.20
2018-03-16T08:03:12.281Z,52.30
2018-03-16T08:05:40.017Z,52.30
2018-03-16T08:08:07.503Z,52.10
2018-03-16T08:10:35.023Z,52.70
2018-03-16T08:13:03.347Z,53.00
2018-03-16T08:15:30.874Z,53.00
2018-03-16T08:17:58.386Z,52.30
2018-03-16T08:20:25.895Z,54.80
2018-03-16T08:22:53.410Z,52.30
2018-03-16T08:25:20.902Z,51.20
2018-03-16T08:27:48.574Z,51.50
2018-03-16T08:30:16.069Z,53.20
2018-03-16T08:32:43.583Z,51.90
2018-03-16T08:35:11.840Z,52.60
2018-03-16T08:37:39.481Z,52.60
2018-03-16T08:40:06.980Z,52.10
2018-03-16T08:42:34.574Z,52.60
2018-03-16T08:45:02.861Z,51.20
2018-03-16T08:47:31.155Z,51.10
2018-03-16T08:49:59.398Z,51.10
2018-03-16T08:52:26.898Z,51.00
2018-03-16T08:54:54.465Z,50.80
2018-03-16T08:57:22.063Z,52.40
2018-03-16T08:59:50.337Z,51.60
2018-03-16T09:02:18.456Z,51.60
2018-03-16T09:04:45.969Z,50.70
2018-03-16T09:07:13.468Z,51.30
2018-03-16T09:09:41.888Z,51.40
2018-03-16T09:12:10.346Z,51.30
2018-03-16T09:14:37.841Z,51.30
2018-03-16T09:17:05.385Z,51.40
2018-03-16T09:19:32.957Z,51.30
2018-03-16T09:22:01.350Z,58.70
2018-03-16T09:24:29.591Z,50.90
2018-03-16T09:26:57.112Z,50.60
2018-03-16T09:29:25.462Z,48.80
2018-03-16T09:31:52.967Z,48.80
2018-03-16T09:34:20.493Z,50.80
2018-03-16T09:36:48.019Z,50.10
2018-03-16T09:39:16.266Z,51.10
2018-03-16T09:41:43.813Z,51.00
2018-03-16T09:44:12.090Z,50.90
2018-03-16T09:46:40.388Z,52.00
2018-03-16T09:49:08.664Z,51.40
2018-03-16T09:51:36.981Z,52.50
2018-03-16T09:54:04.541Z,52.40
2018-03-16T09:56:32.968Z,53.80
2018-03-16T09:59:00.498Z,53.70
2018-03-16T10:01:28.812Z,52.30
2018-03-16T10:03:56.528Z,52.20
2018-03-16T10:06:24.142Z,52.20
2018-03-16T10:08:51.633Z,51.80
2018-03-16T10:11:19.269Z,53.00
2018-03-16T10:13:46.724Z,52.70
2018-03-16T10:16:14.245Z,51.30
2018-03-16T10:18:41.775Z,51.90
2018-03-16T10:21:10.021Z,51.30
2018-03-16T10:23:37.673Z,51.70
2018-03-16T10:26:05.424Z,52.30
2018-03-16T10:28:33.690Z,51.40
2018-03-16T10:31:01.241Z,51.30
2018-03-16T10:33:29.105Z,52.90
2018-03-16T10:35:56.649Z,52.00
2018-03-16T10:38:24.214Z,50.40
2018-03-16T10:40:51.775Z,50.70
2018-03-16T10:43:20.082Z,51.90
2018-03-16T10:45:47.595Z,51.80
2018-03-16T10:48:15.207Z,52.10
2018-03-16T10:50:42.814Z,53.10
2018-03-16T10:53:10.327Z,53.50
2018-03-16T10:55:37.815Z,51.20
2018-03-16T10:58:06.410Z,52.30
2018-03-16T11:00:40.352Z,51.00
2018-03-16T11:03:07.900Z,50.80
2018-03-16T11:05:41.838Z,52.40
2018-03-16T11:08:09.406Z,52.40
2018-03-16T11:10:36.992Z,52.10
2018-03-16T11:13:05.332Z,50.60
2018-03-16T11:15:32.845Z,51.80
2018-03-16T11:18:00.420Z,52.30
2018-03-16T11:20:28.000Z,51.80
2018-03-16T11:22:55.531Z,51.60
2018-03-16T11:25:23.096Z,51.30
2018-03-16T11:27:50.594Z,52.20
2018-03-16T11:30:18.865Z,51.20
2018-03-16T11:32:47.307Z,50.40
2018-03-16T11:35:14.876Z,50.40
2018-03-16T11:37:42.401Z,52.50
2018-03-16T11:40:10.710Z,53.60
2018-03-16T11:42:38.528Z,53.50
2018-03-16T11:45:06.081Z,53.40
2018-03-16T11:47:33.649Z,52.90
2018-03-16T11:50:01.170Z,52.60
2018-03-16T11:52:28.705Z,52.80
2018-03-16T11:54:56.225Z,53.30
2018-03-16T11:57:24.521Z,55.30
2018-03-16T11:59:52.871Z,53.50
2018-03-16T12:02:20.499Z,53.40
2018-03-16T12:04:48.008Z,53.80
2018-03-16T12:07:15.506Z,52.20
2018-03-16T12:09:43.088Z,54.40
2018-03-16T12:12:11.453Z,53.70
2018-03-16T12:14:38.958Z,53.60
2018-03-16T12:17:07.404Z,55.30
2018-03-16T12:19:34.916Z,55.30
2018-03-16T12:22:03.203Z,54.70
2018-03-16T12:24:31.608Z,54.30
2018-03-16T12:26:59.190Z,54.20
2018-03-16T12:29:26.740Z,54.20
2018-03-16T12:31:55.026Z,55.40
2018-03-16T12:34:23.315Z,56.90
2018-03-16T12:36:50.903Z,57.00
2018-03-16T12:39:18.458Z,57.50
2018-03-16T12:41:46.829Z,55.60
2018-03-16T12:44:14.377Z,55.60
2018-03-16T12:46:41.888Z,55.50
2018-03-16T12:49:10.306Z,55.70
2018-03-16T12:51:42.226Z,55.70
2018-03-16T12:54:05.437Z,55.10
2018-03-16T12:56:32.924Z,55.90
2018-03-16T12:59:00.419Z,56.00
2018-03-16T13:01:27.954Z,55.60
2018-03-16T13:03:55.438Z,56.90
2018-03-16T13:06:22.971Z,54.60
2018-03-16T13:08:51.257Z,56.20
2018-03-16T13:11:20.188Z,56.10
2018-03-16T13:13:47.759Z,56.00
2018-03-16T13:16:15.398Z,57.70
2018-03-16T13:18:42.914Z,55.70
2018-03-16T13:21:10.539Z,56.60
2018-03-16T13:23:38.248Z,56.30
2018-03-16T13:26:05.739Z,56.90
2018-03-16T13:28:34.052Z,57.90
2018-03-16T13:31:01.542Z,56.30
2018-03-16T13:33:29.289Z,54.70
2018-03-16T13:35:56.915Z,55.30
2018-03-16T13:38:25.068Z,55.70
2018-03-16T13:40:52.677Z,54.30
2018-03-16T13:43:20.418Z,54.70
2018-03-16T13:45:47.946Z,56.20
2018-03-16T13:48:16.243Z,54.50
2018-03-16T13:50:43.762Z,54.20
2018-03-16T13:53:12.056Z,54.20
2018-03-16T13:55:40.364Z,54.70
2018-03-16T13:58:07.973Z,54.60
2018-03-16T14:00:36.995Z,53.80
2018-03-16T14:03:04.530Z,54.50
2018-03-16T14:05:32.101Z,55.00
2018-03-16T14:07:59.628Z,55.60
2018-03-16T14:10:27.152Z,56.20
2018-03-16T14:12:54.710Z,55.80
2018-03-16T14:15:22.226Z,57.20
2018-03-16T14:17:49.777Z,55.30
2018-03-16T14:20:17.264Z,55.70
2018-03-16T14:22:46.412Z,57.00
2018-03-16T14:25:14.173Z,56.90
2018-03-16T14:27:42.612Z,56.60
2018-03-16T14:30:10.737Z,56.60
2018-03-16T14:32:38.330Z,55.80
2018-03-16T14:35:06.745Z,58.10
2018-03-16T14:37:34.551Z,58.00
2018-03-16T14:40:02.126Z,57.00
2018-03-16T14:42:29.644Z,55.30
2018-03-16T14:44:57.183Z,56.30
2018-03-16T14:47:24.677Z,55.80
2018-03-16T14:49:53.035Z,57.70
2018-03-16T14:52:20.589Z,57.70
2018-03-16T14:54:48.242Z,57.20
2018-03-16T14:57:15.863Z,57.90
2018-03-16T14:59:43.368Z,56.80
2018-03-16T15:02:10.966Z,57.80
2018-03-16T15:04:38.523Z,57.40
2018-03-16T15:07:06.656Z,57.10
2018-03-16T15:09:35.653Z,56.60
2018-03-16T15:12:03.153Z,56.60
2018-03-16T15:14:31.434Z,55.60
2018-03-16T15:16:59.203Z,55.50
2018-03-16T15:19:26.700Z,55.60
2018-03-16T15:21:55.118Z,56.10
2018-03-16T15:24:22.645Z,56.10
2018-03-16T15:26:50.323Z,57.40
2018-03-16T15:29:18.724Z,57.10
2018-03-16T15:31:47.054Z,55.70
2018-03-16T15:34:14.706Z,55.70
2018-03-16T15:36:42.236Z,54.20
2018-03-16T15:39:09.768Z,55.50
2018-03-16T15:41:37.289Z,54.70
2018-03-16T15:44:05.571Z,54.10
2018-03-16T15:46:33.174Z,53.80
2018-03-16T15:49:00.873Z,53.20
2018-03-16T15:51:28.413Z,53.70
2018-03-16T15:53:56.991Z,51.70
2018-03-16T15:56:24.606Z,51.70
2018-03-16T15:58:52.174Z,50.40
2018-03-16T16:01:19.838Z,52.00
2018-03-16T16:03:47.435Z,50.20
2018-03-16T16:06:14.940Z,52.30
2018-03-16T16:08:42.566Z,52.20
2018-03-16T16:11:10.091Z,52.50
2018-03-16T16:13:37.629Z,53.30
2018-03-16T16:16:05.709Z,54.20
2018-03-16T16:18:33.203Z,52.80
2018-03-16T16:21:00.901Z,50.40
2018-03-16T16:23:29.160Z,52.50
2018-03-16T16:25:56.780Z,52.50
2018-03-16T16:28:24.270Z,53.30
2018-03-16T16:30:51.903Z,51.70
2018-03-16T16:33:19.570Z,51.30
2018-03-16T16:35:47.876Z,50.80
2018-03-16T16:38:16.123Z,52.30
2018-03-16T16:40:43.638Z,52.40
2018-03-16T16:43:11.906Z,50.70
2018-03-16T16:45:40.213Z,51.10
2018-03-16T16:48:07.752Z,50.50
2018-03-16T16:50:35.236Z,51.10
2018-03-16T16:53:02.850Z,50.00
2018-03-16T16:55:30.427Z,52.70
2018-03-16T16:57:57.954Z,51.20
2018-03-16T17:00:26.311Z,51.70
2018-03-16T17:02:53.825Z,51.90
2018-03-16T17:05:22.259Z,50.90
2018-03-16T17:07:50.700Z,50.90
2018-03-16T17:10:18.971Z,52.80
2018-03-16T17:12:46.589Z,52.50
2018-03-16T17:15:14.507Z,50.50
2018-03-16T17:17:42.008Z,49.50
2018-03-16T17:20:09.544Z,51.40
2018-03-16T17:22:37.083Z,51.20
2018-03-16T17:25:04.712Z,49.30
2018-03-16T17:27:34.178Z,50.70
2018-03-16T17:30:01.742Z,50.70
2018-03-16T17:32:29.251Z,50.60
2018-03-16T17:34:56.880Z,50.50
2018-03-16T17:37:24.471Z,50.20
2018-03-16T17:39:51.989Z,50.30
2018-03-16T17:42:19.526Z,50.90
2018-03-16T17:44:48.037Z,49.30
2018-03-16T17:47:15.663Z,50.00
2018-03-16T17:49:43.343Z,50.10
2018-03-16T17:52:10.857Z,52.10
2018-03-16T17:54:38.587Z,51.50
2018-03-16T17:57:06.137Z,51.50
2018-03-16T17:59:34.421Z,51.10
2018-03-16T18:02:02.728Z,51.00
2018-03-16T18:04:30.299Z,51.00
2018-03-16T18:06:57.912Z,49.90
2018-03-16T18:09:25.497Z,51.20
2018-03-16T18:11:53.808Z,50.20
2018-03-16T18:14:22.179Z,51.20
2018-03-16T18:16:50.582Z,49.90
2018-03-16T18:19:18.151Z,49.90
2018-03-16T18:21:45.861Z,52.30
2018-03-16T18:24:13.501Z,52.40
2018-03-16T18:26:41.986Z,51.50
2018-03-16T18:29:10.841Z,51.90
2018-03-16T18:31:38.536Z,51.90
2018-03-16T18:34:06.088Z,50.60
2018-03-16T18:36:33.659Z,51.50
2018-03-16T18:39:01.396Z,49.50
2018-03-16T18:41:29.808Z,50.30
2018-03-16T18:43:57.497Z,50.20
2018-03-16T18:46:25.559Z,48.70
2018-03-16T18:48:53.969Z,51.00
2018-03-16T18:51:21.491Z,51.00
2018-03-16T18:53:49.055Z,52.00
2018-03-16T18:56:16.667Z,51.50
2018-03-16T18:58:44.228Z,50.10
2018-03-16T19:01:12.514Z,49.30
2018-03-16T19:03:40.858Z,49.40
2018-03-16T19:06:08.353Z,49.40
2018-03-16T19:08:35.905Z,49.70
2018-03-16T19:11:03.426Z,50.20
2018-03-16T19:13:31.824Z,49.90
2018-03-16T19:15:59.406Z,50.00
2018-03-16T19:18:26.907Z,50.90
2018-03-16T19:20:54.539Z,51.60
2018-03-16T19:23:22.106Z,51.80
2018-03-16T19:25:49.667Z,52.00
2018-03-16T19:28:17.975Z,51.70
2018-03-16T19:30:45.539Z,51.60
2018-03-16T19:33:13.958Z,50.30
2018-03-16T19:35:41.487Z,50.20
2018-03-16T19:38:10.438Z,49.70
2018-03-16T19:40:37.951Z,49.60
2018-03-16T19:43:06.104Z,49.20
2018-03-16T19:45:33.604Z,50.70
2018-03-16T19:48:01.174Z,49.10
2018-03-16T19:50:28.690Z,48.10
2018-03-16T19:52:56.240Z,49.80
2018-03-16T19:55:24.533Z,49.10
2018-03-16T19:57:52.138Z,49.00
2018-03-16T20:00:19.741Z,49.00
2018-03-16T20:02:47.269Z,50.80
2018-03-16T20:05:14.783Z,47.60
2018-03-16T20:07:42.420Z,48.50
2018-03-16T20:10:09.971Z,49.00
2018-03-16T20:12:37.527Z,47.70
2018-03-16T20:15:06.042Z,47.20
2018-03-16T20:17:33.600Z,47.30
2018-03-16T20:20:01.887Z,45.80
2018-03-16T20:22:30.193Z,48.10
2018-03-16T20:24:58.668Z,48.10
2018-03-16T20:27:26.248Z,46.60
2018-03-16T20:29:53.731Z,48.50
2018-03-16T20:32:21.292Z,47.00
2018-03-16T20:34:48.866Z,46.30
2018-03-16T20:37:16.367Z,47.00
2018-03-16T20:39:43.946Z,45.80
2018-03-16T20:42:11.449Z,44.60
2018-03-16T20:44:39.768Z,43.30
2018-03-16T20:47:07.343Z,43.10
2018-03-16T20:49:34.914Z,45.50
2018-03-16T20:52:02.852Z,47.40
2018-03-16T20:54:30.545Z,45.00
2018-03-16T20:56:59.047Z,45.00
2018-03-16T20:59:26.651Z,45.00
2018-03-16T21:01:54.183Z,42.90
2018-03-16T21:04:21.898Z,41.30
2018-03-16T21:06:49.601Z,42.10
2018-03-16T21:09:17.167Z,41.30
2018-03-16T21:11:45.053Z,43.70
2018-03-16T21:14:12.603Z,45.60
2018-03-16T21:16:40.223Z,45.90
2018-03-16T21:19:08.581Z,42.10
2018-03-16T21:21:36.267Z,42.10
2018-03-16T21:24:05.530Z,42.90
2018-03-16T21:26:33.507Z,42.80
2018-03-16T21:29:01.291Z,43.10
2018-03-16T21:31:28.815Z,43.20
2018-03-16T21:33:56.518Z,44.50
2018-03-16T21:36:24.131Z,44.10
2018-03-16T21:38:51.732Z,42.50
2018-03-16T21:41:19.492Z,46.10
2018-03-16T21:43:47.050Z,42.70
2018-03-16T21:46:14.555Z,41.90
2018-03-16T21:48:42.901Z,65.60
2018-03-16T21:51:10.484Z,64.90
2018-03-16T21:53:39.583Z,39.80
2018-03-16T21:56:07.242Z,39.80
2018-03-16T21:58:34.892Z,41.50
2018-03-16T22:01:03.403Z,40.00
2018-03-16T22:03:31.849Z,36.90
2018-03-16T22:05:59.407Z,36.90
2018-03-16T22:08:26.975Z,41.70
2018-03-16T22:10:54.488Z,43.10
2018-03-16T22:13:22.792Z,40.20
2018-03-16T22:15:50.311Z,40.10
2018-03-16T22:18:17.916Z,41.20
2018-03-16T22:20:46.403Z,43.40
2018-03-16T22:23:14.677Z,42.70
2018-03-16T22:25:42.259Z,42.70
2018-03-16T22:28:11.126Z,42.80
2018-03-16T22:30:38.627Z,42.80
2018-03-16T22:33:07.045Z,42.80
2018-03-16T22:35:35.408Z,42.70
2018-03-16T22:38:02.925Z,43.50
2018-03-16T22:40:30.451Z,41.30
2018-03-16T22:42:58.805Z,41.00
2018-03-16T22:45:26.436Z,40.90
2018-03-16T22:47:53.926Z,41.60
2018-03-16T22:50:21.836Z,40.00
2018-03-16T22:52:49.370Z,40.60
2018-03-16T22:55:17.021Z,39.10
2018-03-16T22:57:45.400Z,41.40
2018-03-16T23:00:13.682Z,41.70
2018-03-16T23:02:41.287Z,41.60
2018-03-16T23:05:08.823Z,40.70
2018-03-16T23:07:37.110Z,41.70
2018-03-16T23:10:04.666Z,41.60
2018-03-16T23:12:32.197Z,41.30
2018-03-16T23:14:59.682Z,40.20
2018-03-16T23:17:27.319Z,40.60
2018-03-16T23:19:55.646Z,42.60
2018-03-16T23:22:23.184Z,42.50
2018-03-16T23:24:50.703Z,42.30
2018-03-16T23:27:18.256Z,41.00
2018-03-16T23:29:45.796Z,39.50
2018-03-16T23:32:13.437Z,44.80
2018-03-16T23:34:41.063Z,41.00
2018-03-16T23:37:08.581Z,38.60
2018-03-16T23:39:37.007Z,39.80
2018-03-16T23:42:04.559Z,39.20
2018-03-16T23:44:32.824Z,38.90
2018-03-16T23:47:00.356Z,38.80
2018-03-16T23:49:27.871Z,39.00
2018-03-16T23:51:55.388Z,38.10
2018-03-16T23:54:22.877Z,38.70
2018-03-16T23:56:50.734Z,38.60
2018-03-16T23:59:18.362Z,43.40
